Terminal Aerodrome Forecast
Issued by NWS

Home | Current Version | Previous Version | Text Only | Print | Product List | Glossary On
Versions: 1 2 3 4 5 6 7 8 9 10 11 12 13 14 15 16 17 18 19 20
079
FTUS43 KTOP 261351 AAA
TAFMHK
TAF AMD
KMHK 261351Z 2614/2712 18010KT P6SM VCTS BKN080CB
      TEMPO 2614/2616 -TSRA BKN080CB
     FM261600 18009KT P6SM SCT080
     FM262300 20012KT P6SM -SHRA VCTS SCT090CB
     FM270700 05008KT P6SM -SHRA BKN080
     FM270900 01005KT P6SM BKN030=

USA.gov is the U.S. government's official web portal to all federal, state and local government web resources and services.